createdAt,value
2019-05-16T00:00:00.669Z,0.00
2019-05-16T00:01:00.613Z,0.00
2019-05-16T00:02:01.406Z,0.00
2019-05-16T00:03:00.513Z,0.00
2019-05-16T00:04:00.494Z,0.00
2019-05-16T00:05:00.401Z,0.00
2019-05-16T00:06:00.388Z,0.00
2019-05-16T00:07:00.295Z,0.00
2019-05-16T00:08:00.247Z,0.00
2019-05-16T00:09:00.181Z,0.00
2019-05-16T00:10:00.130Z,0.00
2019-05-16T00:11:00.117Z,0.00
2019-05-16T00:12:00.022Z,0.00
2019-05-16T00:13:00.005Z,0.00
2019-05-16T00:13:59.918Z,0.00
2019-05-16T00:14:59.883Z,0.00
2019-05-16T00:15:59.809Z,0.00
2019-05-16T00:16:59.752Z,0.00
2019-05-16T00:17:59.738Z,0.00
2019-05-16T00:18:59.646Z,0.00
2019-05-16T00:19:59.629Z,0.00
2019-05-16T00:20:59.536Z,0.00
2019-05-16T00:21:59.481Z,0.00
2019-05-16T00:22:59.465Z,0.00
2019-05-16T00:23:59.374Z,0.00
2019-05-16T00:24:59.321Z,0.00
2019-05-16T00:25:59.269Z,0.00
2019-05-16T00:26:59.249Z,0.00
2019-05-16T00:27:59.159Z,0.00
2019-05-16T00:28:59.105Z,0.00
2019-05-16T00:29:59.091Z,0.00
2019-05-16T00:30:59.351Z,0.00
2019-05-16T00:31:58.946Z,0.00
2019-05-16T00:32:59.037Z,0.00
2019-05-16T00:33:58.879Z,0.00
2019-05-16T00:34:58.784Z,0.00
2019-05-16T00:36:03.407Z,0.00
2019-05-16T00:36:58.675Z,0.00
2019-05-16T00:37:59.136Z,0.00
2019-05-16T00:38:58.607Z,0.00
2019-05-16T00:39:58.910Z,0.00
2019-05-16T00:40:59.076Z,0.00
2019-05-16T00:41:58.527Z,0.00
2019-05-16T00:42:59.066Z,0.00
2019-05-16T00:43:58.298Z,0.00
2019-05-16T00:44:58.520Z,0.00
2019-05-16T00:45:58.902Z,0.00
2019-05-16T00:46:58.240Z,0.00
2019-05-16T00:47:58.667Z,0.00
2019-05-16T00:48:58.922Z,0.00
2019-05-16T00:49:58.333Z,0.00
2019-05-16T00:50:58.452Z,0.00
2019-05-16T00:51:58.442Z,0.00
2019-05-16T00:52:59.059Z,0.00
2019-05-16T00:53:58.787Z,0.00
2019-05-16T00:54:58.066Z,0.00
2019-05-16T00:55:58.469Z,0.00
2019-05-16T00:56:57.871Z,0.00
2019-05-16T00:57:58.342Z,0.00
2019-05-16T00:58:58.732Z,0.00
2019-05-16T00:59:59.212Z,0.00
2019-05-16T01:00:59.311Z,0.00
2019-05-16T01:01:58.740Z,0.00
2019-05-16T01:02:57.862Z,0.00
2019-05-16T01:03:58.594Z,0.00
2019-05-16T01:04:58.952Z,0.00
2019-05-16T01:05:58.219Z,0.00
2019-05-16T01:06:58.490Z,0.00
2019-05-16T01:07:58.447Z,0.00
2019-05-16T01:08:57.941Z,0.00
2019-05-16T01:09:58.297Z,0.00
2019-05-16T01:10:58.636Z,0.00
2019-05-16T01:11:57.921Z,0.00
2019-05-16T01:12:58.477Z,0.00
2019-05-16T01:13:57.876Z,0.00
2019-05-16T01:14:58.448Z,0.00
2019-05-16T01:15:57.938Z,0.00
2019-05-16T01:16:58.151Z,0.00
2019-05-16T01:17:58.728Z,0.00
2019-05-16T01:18:58.863Z,0.00
2019-05-16T01:19:57.888Z,0.00
2019-05-16T01:20:58.403Z,0.00
2019-05-16T01:21:58.813Z,0.00
2019-05-16T01:22:58.107Z,0.00
2019-05-16T01:23:56.138Z,0.00
2019-05-16T01:24:58.316Z,0.00
2019-05-16T01:25:56.034Z,0.00
2019-05-16T01:26:57.775Z,0.00
2019-05-16T01:27:58.146Z,0.00
2019-05-16T01:28:57.729Z,0.00
2019-05-16T01:29:58.219Z,0.00
2019-05-16T01:30:57.842Z,0.00
2019-05-16T01:31:55.707Z,0.00
2019-05-16T01:32:58.121Z,0.00
2019-05-16T01:33:55.636Z,0.00
2019-05-16T01:34:55.551Z,0.00
2019-05-16T01:35:55.496Z,0.00
2019-05-16T01:36:55.434Z,0.00
2019-05-16T01:37:55.418Z,0.00
2019-05-16T01:38:55.368Z,0.00
2019-05-16T01:39:55.276Z,0.00
2019-05-16T01:40:55.221Z,0.00
2019-05-16T01:41:55.164Z,0.00
2019-05-16T01:42:55.150Z,0.00
2019-05-16T01:43:55.055Z,0.00
2019-05-16T01:44:55.042Z,0.00
2019-05-16T01:45:54.947Z,0.00
2019-05-16T01:46:54.894Z,0.00
2019-05-16T01:47:54.850Z,0.00
2019-05-16T01:48:54.834Z,0.00
2019-05-16T01:49:54.741Z,0.00
2019-05-16T01:50:54.677Z,0.00
2019-05-16T01:51:54.622Z,0.00
2019-05-16T01:52:54.580Z,0.00
2019-05-16T01:53:54.567Z,0.00
2019-05-16T01:54:54.469Z,0.00
2019-05-16T01:55:54.412Z,0.00
2019-05-16T01:56:54.356Z,0.00
2019-05-16T01:57:54.302Z,0.00
2019-05-16T01:58:54.273Z,0.00
2019-05-16T01:59:54.192Z,0.00
2019-05-16T02:01:05.956Z,0.00
2019-05-16T02:01:54.082Z,0.00
2019-05-16T02:02:54.041Z,0.00
2019-05-16T02:03:54.018Z,0.00
2019-05-16T02:04:53.965Z,0.00
2019-05-16T02:05:53.869Z,0.00
2019-05-16T02:06:54.933Z,0.00
2019-05-16T02:07:53.759Z,0.00
2019-05-16T02:08:53.758Z,0.00
2019-05-16T02:09:53.651Z,0.00
2019-05-16T02:10:53.596Z,0.00
2019-05-16T02:11:53.544Z,0.00
2019-05-16T02:12:53.487Z,0.00
2019-05-16T02:13:53.472Z,0.00
2019-05-16T02:14:53.381Z,0.00
2019-05-16T02:15:53.373Z,0.00
2019-05-16T02:16:53.276Z,0.00
2019-05-16T02:17:53.216Z,0.00
2019-05-16T02:18:53.163Z,0.00
2019-05-16T02:19:53.120Z,0.00
2019-05-16T02:20:53.097Z,0.00
2019-05-16T02:21:53.003Z,0.00
2019-05-16T02:22:52.949Z,0.00
2019-05-16T02:23:52.890Z,0.00
2019-05-16T02:24:52.838Z,0.00
2019-05-16T02:25:52.848Z,0.00
2019-05-16T02:26:52.731Z,0.00
2019-05-16T02:27:52.677Z,0.00
2019-05-16T02:28:52.623Z,0.00
2019-05-16T02:29:52.575Z,0.00
2019-05-16T02:30:52.554Z,0.00
2019-05-16T02:31:52.499Z,0.00
2019-05-16T02:32:52.662Z,0.00
2019-05-16T02:33:52.363Z,0.00
2019-05-16T02:34:52.302Z,0.00
2019-05-16T02:35:55.726Z,0.00
2019-05-16T02:37:09.868Z,0.00
2019-05-16T02:37:55.241Z,0.00
2019-05-16T02:38:55.615Z,0.00
2019-05-16T02:39:54.536Z,0.00
2019-05-16T02:40:55.237Z,0.00
2019-05-16T02:41:52.144Z,0.00
2019-05-16T02:42:51.956Z,0.00
2019-05-16T02:43:51.814Z,0.00
2019-05-16T02:44:51.756Z,0.00
2019-05-16T02:45:52.232Z,0.00
2019-05-16T02:46:51.653Z,0.00
2019-05-16T02:47:51.632Z,0.00
2019-05-16T02:48:52.059Z,0.00
2019-05-16T02:49:51.492Z,0.00
2019-05-16T02:50:51.735Z,0.00
2019-05-16T02:51:51.408Z,0.00
2019-05-16T02:52:51.990Z,0.00
2019-05-16T02:53:51.417Z,0.00
2019-05-16T02:54:51.967Z,0.00
2019-05-16T02:55:51.825Z,0.00
2019-05-16T02:56:51.107Z,0.00
2019-05-16T02:57:51.250Z,0.00
2019-05-16T02:58:52.020Z,0.00
2019-05-16T02:59:51.231Z,0.00
2019-05-16T03:00:51.595Z,0.00
2019-05-16T03:01:52.181Z,0.00
2019-05-16T03:02:50.783Z,0.00
2019-05-16T03:03:51.664Z,0.00
2019-05-16T03:04:51.666Z,0.00
2019-05-16T03:05:51.018Z,0.00
2019-05-16T03:06:51.230Z,0.00
2019-05-16T03:07:52.089Z,0.00
2019-05-16T03:08:50.860Z,0.00
2019-05-16T03:09:51.418Z,0.00
2019-05-16T03:10:52.100Z,0.00
2019-05-16T03:11:50.980Z,4.00
2019-05-16T03:12:51.336Z,4.00
2019-05-16T03:13:51.364Z,0.00
2019-05-16T03:14:50.371Z,0.00
2019-05-16T03:15:50.981Z,4.00
2019-05-16T03:16:50.739Z,4.00
2019-05-16T03:17:50.726Z,4.00
2019-05-16T03:18:51.601Z,4.00
2019-05-16T03:19:51.026Z,4.00
2019-05-16T03:20:50.967Z,4.00
2019-05-16T03:21:50.924Z,4.00
2019-05-16T03:22:51.968Z,8.00
2019-05-16T03:23:50.791Z,4.00
2019-05-16T03:24:51.520Z,8.00
2019-05-16T03:25:50.790Z,8.00
2019-05-16T03:26:51.493Z,12.00
2019-05-16T03:27:51.250Z,12.00
2019-05-16T03:28:52.157Z,12.00
2019-05-16T03:29:50.606Z,12.00
2019-05-16T03:30:54.434Z,16.00
2019-05-16T03:31:53.944Z,16.00
2019-05-16T03:32:54.183Z,16.00
2019-05-16T03:33:57.577Z,20.00
2019-05-16T03:34:54.083Z,20.00
2019-05-16T03:35:54.509Z,20.00
2019-05-16T03:36:53.693Z,24.00
2019-05-16T03:37:55.798Z,24.00
2019-05-16T03:38:50.754Z,24.00
2019-05-16T03:39:51.452Z,28.00
2019-05-16T03:40:50.981Z,28.00
2019-05-16T03:41:50.661Z,32.00
2019-05-16T03:42:51.695Z,28.00
2019-05-16T03:43:50.655Z,36.00
2019-05-16T03:44:51.207Z,36.00
2019-05-16T03:45:51.896Z,40.00
2019-05-16T03:46:51.675Z,40.00
2019-05-16T03:47:51.078Z,48.00
2019-05-16T03:48:51.550Z,56.00
2019-05-16T03:49:51.563Z,60.00
2019-05-16T03:50:50.728Z,72.00
2019-05-16T03:51:50.506Z,76.00
2019-05-16T03:52:50.839Z,84.00
2019-05-16T03:53:50.675Z,92.00
2019-05-16T03:54:50.523Z,92.00
2019-05-16T03:55:51.431Z,104.00
2019-05-16T03:56:47.838Z,108.00
2019-05-16T03:57:47.780Z,116.00
2019-05-16T03:58:50.770Z,120.00
2019-05-16T03:59:47.670Z,132.00
2019-05-16T04:00:51.297Z,140.00
2019-05-16T04:01:47.561Z,144.00
2019-05-16T04:02:47.546Z,144.00
2019-05-16T04:03:50.802Z,144.00
2019-05-16T04:04:47.402Z,148.00
2019-05-16T04:05:47.344Z,148.00
2019-05-16T04:06:50.511Z,152.00
2019-05-16T04:07:47.232Z,152.00
2019-05-16T04:08:50.892Z,160.00
2019-05-16T04:09:47.166Z,168.00
2019-05-16T04:10:47.074Z,168.00
2019-05-16T04:11:47.051Z,176.00
2019-05-16T04:12:46.973Z,184.00
2019-05-16T04:13:46.934Z,192.00
2019-05-16T04:14:46.853Z,192.00
2019-05-16T04:15:46.794Z,192.00
2019-05-16T04:16:46.778Z,196.00
2019-05-16T04:17:46.723Z,196.00
2019-05-16T04:18:46.630Z,196.00
2019-05-16T04:19:46.585Z,200.00
2019-05-16T04:20:46.524Z,204.00
2019-05-16T04:21:46.467Z,204.00
2019-05-16T04:22:46.447Z,212.00
2019-05-16T04:23:46.357Z,224.00
2019-05-16T04:24:46.301Z,236.00
2019-05-16T04:25:46.247Z,244.00
2019-05-16T04:26:46.197Z,252.00
2019-05-16T04:27:46.176Z,260.00
2019-05-16T04:28:46.084Z,276.00
2019-05-16T04:29:46.039Z,296.00
2019-05-16T04:30:45.973Z,324.00
2019-05-16T04:31:45.918Z,356.00
2019-05-16T04:32:45.905Z,392.00
2019-05-16T04:33:45.808Z,428.00
2019-05-16T04:34:45.790Z,460.00
2019-05-16T04:35:45.699Z,480.00
2019-05-16T04:36:45.646Z,492.00
2019-05-16T04:37:45.589Z,496.00
2019-05-16T04:38:46.938Z,496.00
2019-05-16T04:39:45.597Z,496.00
2019-05-16T04:40:45.424Z,508.00
2019-05-16T04:41:45.370Z,528.00
2019-05-16T04:42:45.320Z,536.00
2019-05-16T04:43:45.262Z,540.00
2019-05-16T04:44:45.244Z,536.00
2019-05-16T04:45:45.151Z,540.00
2019-05-16T04:46:45.102Z,548.00
2019-05-16T04:47:45.041Z,556.00
2019-05-16T04:48:45.051Z,580.00
2019-05-16T04:49:44.936Z,608.00
2019-05-16T04:50:44.877Z,644.00
2019-05-16T04:51:44.823Z,688.00
2019-05-16T04:52:44.772Z,736.00
2019-05-16T04:53:44.757Z,768.00
2019-05-16T04:54:44.660Z,796.00
2019-05-16T04:55:44.610Z,820.00
2019-05-16T04:56:44.598Z,840.00
2019-05-16T04:57:44.505Z,872.00
2019-05-16T04:58:44.441Z,900.00
2019-05-16T04:59:44.397Z,932.00
2019-05-16T05:00:44.334Z,956.00
2019-05-16T05:01:44.326Z,976.00
2019-05-16T05:02:44.222Z,984.00
2019-05-16T05:04:00.446Z,980.00
2019-05-16T05:04:44.113Z,964.00
2019-05-16T05:05:44.057Z,952.00
2019-05-16T05:06:44.042Z,952.00
2019-05-16T05:07:43.950Z,976.00
2019-05-16T05:08:53.944Z,992.00
2019-05-16T05:09:43.844Z,1012.00
2019-05-16T05:10:43.788Z,1032.00
2019-05-16T05:11:43.764Z,1068.00
2019-05-16T05:12:43.686Z,1096.00
2019-05-16T05:13:43.621Z,1116.00
2019-05-16T05:14:43.575Z,1132.00
2019-05-16T05:15:43.521Z,1148.00
2019-05-16T05:16:43.515Z,1156.00
2019-05-16T05:17:43.402Z,1172.00
2019-05-16T05:18:43.357Z,1180.00
2019-05-16T05:19:43.296Z,1192.00
2019-05-16T05:20:43.244Z,1212.00
2019-05-16T05:21:43.223Z,1228.00
2019-05-16T05:22:43.131Z,1240.00
2019-05-16T05:23:43.082Z,1268.00
2019-05-16T05:24:43.022Z,1276.00
2019-05-16T05:25:42.968Z,1280.00
2019-05-16T05:26:42.949Z,1272.00
2019-05-16T05:27:42.896Z,1256.00
2019-05-16T05:28:42.807Z,1236.00
2019-05-16T05:29:42.751Z,1212.00
2019-05-16T05:30:42.695Z,1164.00
2019-05-16T05:31:44.549Z,1136.00
2019-05-16T05:32:42.623Z,1156.00
2019-05-16T05:33:42.565Z,1192.00
2019-05-16T05:34:42.489Z,1256.00
2019-05-16T05:35:42.442Z,1324.00
2019-05-16T05:36:42.418Z,1380.00
2019-05-16T05:37:42.348Z,1428.00
2019-05-16T05:38:42.274Z,1440.00
2019-05-16T05:39:42.242Z,1452.00
2019-05-16T05:40:42.154Z,1452.00
2019-05-16T05:41:42.100Z,1444.00
2019-05-16T05:42:42.049Z,1424.00
2019-05-16T05:43:42.031Z,1400.00
2019-05-16T05:44:41.940Z,1384.00
2019-05-16T05:45:41.884Z,1372.00
2019-05-16T05:46:41.860Z,1368.00
2019-05-16T05:47:41.776Z,1384.00
2019-05-16T05:48:41.716Z,1396.00
2019-05-16T05:49:41.668Z,1404.00
2019-05-16T05:50:41.654Z,1412.00
2019-05-16T05:51:41.563Z,1440.00
2019-05-16T05:52:41.505Z,1464.00
2019-05-16T05:53:41.451Z,1460.00
2019-05-16T05:54:41.413Z,1428.00
2019-05-16T05:55:41.434Z,1360.00
2019-05-16T05:56:41.339Z,1272.00
2019-05-16T05:57:41.233Z,1168.00
2019-05-16T05:58:41.184Z,1044.00
2019-05-16T05:59:41.128Z,920.00
2019-05-16T06:00:41.072Z,800.00
2019-05-16T06:01:41.083Z,720.00
2019-05-16T06:02:40.967Z,672.00
2019-05-16T06:03:40.925Z,640.00
2019-05-16T06:04:40.853Z,624.00
2019-05-16T06:05:41.355Z,620.00
2019-05-16T06:06:44.331Z,624.00
2019-05-16T06:07:40.758Z,620.00
2019-05-16T06:08:40.988Z,604.00
2019-05-16T06:09:52.427Z,596.00
2019-05-16T06:10:40.644Z,596.00
2019-05-16T06:11:40.682Z,612.00
2019-05-16T06:12:41.414Z,644.00
2019-05-16T06:13:40.626Z,692.00
2019-05-16T06:14:41.799Z,748.00
2019-05-16T06:15:40.309Z,804.00
2019-05-16T06:16:40.389Z,860.00
2019-05-16T06:17:40.306Z,924.00
2019-05-16T06:18:40.104Z,964.00
2019-05-16T06:19:40.302Z,1000.00
2019-05-16T06:20:40.177Z,1016.00
2019-05-16T06:21:44.970Z,1016.00
2019-05-16T06:22:40.292Z,1016.00
2019-05-16T06:23:40.333Z,1020.00
2019-05-16T06:24:39.978Z,1036.00
2019-05-16T06:25:40.534Z,1084.00
2019-05-16T06:26:39.844Z,1164.00
2019-05-16T06:27:40.662Z,1204.00
2019-05-16T06:28:41.242Z,1224.00
2019-05-16T06:29:40.310Z,1244.00
2019-05-16T06:30:40.715Z,1260.00
2019-05-16T06:31:40.635Z,1276.00
2019-05-16T06:32:39.589Z,1272.00
2019-05-16T06:33:41.088Z,1248.00
2019-05-16T06:34:40.401Z,1208.00
2019-05-16T06:35:40.244Z,1168.00
2019-05-16T06:36:40.084Z,1124.00
2019-05-16T06:37:40.533Z,1076.00
2019-05-16T06:38:40.503Z,1040.00
2019-05-16T06:39:42.791Z,1032.00
2019-05-16T06:40:40.218Z,1028.00
2019-05-16T06:41:39.734Z,1016.00
2019-05-16T06:42:40.337Z,1000.00
2019-05-16T06:43:40.015Z,980.00
2019-05-16T06:44:40.118Z,956.00
2019-05-16T06:45:40.228Z,940.00
2019-05-16T06:46:53.989Z,936.00
2019-05-16T06:47:39.658Z,948.00
2019-05-16T06:48:39.853Z,968.00
2019-05-16T06:49:40.311Z,1004.00
2019-05-16T06:50:40.193Z,1072.00
2019-05-16T06:51:39.741Z,1168.00
2019-05-16T06:52:40.638Z,1236.00
2019-05-16T06:53:40.314Z,1276.00
2019-05-16T06:54:40.559Z,1312.00
2019-05-16T06:55:40.026Z,1364.00
2019-05-16T06:56:40.138Z,1444.00
2019-05-16T06:57:37.991Z,1576.00
2019-05-16T06:58:45.734Z,1676.00
2019-05-16T06:59:37.900Z,1712.00
2019-05-16T07:00:37.828Z,1712.00
2019-05-16T07:01:40.268Z,1660.00
2019-05-16T07:02:40.583Z,1600.00
2019-05-16T07:03:40.026Z,1540.00
2019-05-16T07:04:39.705Z,1456.00
2019-05-16T07:05:37.563Z,1364.00
2019-05-16T07:06:51.693Z,1288.00
2019-05-16T07:07:37.455Z,1244.00
2019-05-16T07:08:40.127Z,1208.00
2019-05-16T07:09:37.348Z,1184.00
2019-05-16T07:10:37.288Z,1172.00
2019-05-16T07:11:39.649Z,1196.00
2019-05-16T07:12:37.184Z,1212.00
2019-05-16T07:13:37.169Z,1196.00
2019-05-16T07:14:37.077Z,1172.00
2019-05-16T07:15:37.024Z,1184.00
2019-05-16T07:16:36.972Z,1204.00
2019-05-16T07:17:36.916Z,1252.00
2019-05-16T07:18:36.894Z,1344.00
2019-05-16T07:19:36.807Z,1400.00
2019-05-16T07:20:36.783Z,1484.00
2019-05-16T07:21:36.707Z,1628.00
2019-05-16T07:22:36.644Z,1732.00
2019-05-16T07:23:36.597Z,1772.00
2019-05-16T07:24:36.538Z,1760.00
2019-05-16T07:25:36.525Z,1740.00
2019-05-16T07:26:36.430Z,1736.00
2019-05-16T07:27:36.381Z,1760.00
2019-05-16T07:28:36.321Z,1812.00
2019-05-16T07:29:36.296Z,1940.00
2019-05-16T07:30:36.227Z,2036.00
2019-05-16T07:31:36.199Z,2080.00
2019-05-16T07:32:36.117Z,2008.00
2019-05-16T07:33:36.055Z,1872.00
2019-05-16T07:34:36.086Z,1756.00
2019-05-16T07:35:35.942Z,1704.00
2019-05-16T07:36:35.891Z,1700.00
2019-05-16T07:37:35.839Z,1712.00
2019-05-16T07:38:36.543Z,1752.00
2019-05-16T07:39:38.532Z,1844.00
2019-05-16T07:40:35.679Z,2060.00
2019-05-16T07:41:35.622Z,2324.00
2019-05-16T07:42:35.571Z,2636.00
2019-05-16T07:43:35.515Z,2876.00
2019-05-16T07:44:35.493Z,3096.00
2019-05-16T07:45:37.823Z,3036.00
2019-05-16T07:46:35.352Z,2924.00
2019-05-16T07:47:35.339Z,2956.00
2019-05-16T07:48:35.251Z,3152.00
2019-05-16T07:49:35.192Z,3280.00
2019-05-16T07:50:35.142Z,3212.00
2019-05-16T07:51:35.087Z,3104.00
2019-05-16T07:52:36.508Z,3224.00
2019-05-16T07:53:34.997Z,3488.00
2019-05-16T07:54:34.926Z,3692.00
2019-05-16T07:55:34.890Z,3772.00
2019-05-16T07:56:34.818Z,3796.00
2019-05-16T07:57:34.813Z,3768.00
2019-05-16T07:58:34.710Z,3724.00
2019-05-16T07:59:34.660Z,3756.00
2019-05-16T08:00:49.707Z,3740.00
2019-05-16T08:01:34.553Z,3676.00
2019-05-16T08:02:34.532Z,3600.00
2019-05-16T08:03:34.448Z,3524.00
2019-05-16T08:04:34.393Z,3416.00
2019-05-16T08:05:34.339Z,3316.00
2019-05-16T08:06:34.293Z,3316.00
2019-05-16T08:07:34.272Z,3516.00
2019-05-16T08:08:34.211Z,3728.00
2019-05-16T08:09:34.129Z,3916.00
2019-05-16T08:10:41.473Z,4212.00
2019-05-16T08:11:34.031Z,4416.00
2019-05-16T08:12:34.002Z,4500.00
2019-05-16T08:13:33.917Z,4616.00
2019-05-16T08:14:35.199Z,4864.00
2019-05-16T08:15:33.820Z,5264.00
2019-05-16T08:16:33.763Z,5512.00
2019-05-16T08:17:33.744Z,5496.00
2019-05-16T08:18:33.657Z,5240.00
2019-05-16T08:19:33.596Z,4908.00
2019-05-16T08:20:33.546Z,4704.00
2019-05-16T08:21:33.498Z,4748.00
2019-05-16T08:22:33.497Z,5148.00
2019-05-16T08:23:33.390Z,5408.00
2019-05-16T08:24:36.103Z,5488.00
2019-05-16T08:25:33.297Z,5792.00
2019-05-16T08:26:38.833Z,5684.00
2019-05-16T08:27:33.250Z,6152.00
2019-05-16T08:28:33.132Z,6440.00
2019-05-16T08:29:33.074Z,6440.00
2019-05-16T08:30:33.064Z,6252.00
2019-05-16T08:31:32.975Z,6352.00
2019-05-16T08:32:32.942Z,6064.00
2019-05-16T08:33:32.908Z,6584.00
2019-05-16T08:34:32.817Z,6764.00
2019-05-16T08:35:32.768Z,5760.00
2019-05-16T08:36:32.711Z,5696.00
2019-05-16T08:37:41.818Z,6520.00
2019-05-16T08:38:32.615Z,7404.00
2019-05-16T08:39:32.566Z,7728.00
2019-05-16T08:40:32.506Z,8236.00
2019-05-16T08:41:32.458Z,8208.00
2019-05-16T08:42:32.636Z,8172.00
2019-05-16T08:43:32.358Z,8220.00
2019-05-16T08:44:32.671Z,8072.00
2019-05-16T08:45:32.253Z,7760.00
2019-05-16T08:46:32.600Z,7236.00
2019-05-16T08:47:32.414Z,7332.00
2019-05-16T08:48:32.458Z,7344.00
2019-05-16T08:49:32.059Z,7672.00
2019-05-16T08:50:35.103Z,7516.00
2019-05-16T08:51:33.589Z,7568.00
2019-05-16T08:52:31.902Z,7504.00
2019-05-16T08:53:32.183Z,7156.00
2019-05-16T08:54:32.126Z,7812.00
2019-05-16T08:55:31.752Z,6844.00
2019-05-16T08:56:32.075Z,6920.00
2019-05-16T08:57:33.301Z,6576.00
2019-05-16T08:58:33.169Z,6364.00
2019-05-16T08:59:33.903Z,6456.00
2019-05-16T09:00:34.807Z,6372.00
2019-05-16T09:01:34.978Z,6464.00
2019-05-16T09:03:32.353Z,6640.00
2019-05-16T09:04:33.828Z,6520.00
2019-05-16T09:05:31.601Z,6116.00
2019-05-16T09:06:32.165Z,6544.00
2019-05-16T09:07:31.905Z,6004.00
2019-05-16T09:08:31.112Z,6028.00
2019-05-16T09:09:42.545Z,5856.00
2019-05-16T09:10:15.892Z,7288.00
2019-05-16T09:10:59.800Z,5560.00
2019-05-16T09:12:30.960Z,5028.00
2019-05-16T09:13:30.888Z,4536.00
2019-05-16T09:14:35.170Z,4236.00
2019-05-16T09:15:30.828Z,3972.00
2019-05-16T09:16:30.763Z,3740.00
2019-05-16T09:17:30.694Z,3540.00
2019-05-16T09:18:37.937Z,5488.00
2019-05-16T09:18:40.567Z,3384.00
2019-05-16T09:19:30.620Z,3284.00
2019-05-16T09:20:30.550Z,3292.00
2019-05-16T09:21:30.480Z,3584.00
2019-05-16T09:22:30.487Z,4080.00
2019-05-16T09:23:30.412Z,4088.00
2019-05-16T09:24:30.370Z,4180.00
2019-05-16T09:25:30.421Z,4196.00
2019-05-16T09:26:30.255Z,4084.00
2019-05-16T09:27:30.198Z,3980.00
2019-05-16T09:28:30.139Z,3772.00
2019-05-16T09:29:30.089Z,3700.00
2019-05-16T09:30:40.635Z,3700.00
2019-05-16T09:31:30.023Z,3696.00
2019-05-16T09:32:29.943Z,3688.00
2019-05-16T09:33:29.933Z,3824.00
2019-05-16T09:34:29.847Z,3988.00
2019-05-16T09:35:29.806Z,4160.00
2019-05-16T09:36:29.758Z,4328.00
2019-05-16T09:37:29.776Z,4668.00
2019-05-16T09:38:29.658Z,4688.00
2019-05-16T09:39:29.631Z,4448.00
2019-05-16T09:40:29.552Z,4200.00
2019-05-16T09:41:46.365Z,3968.00
2019-05-16T09:42:29.488Z,3744.00
2019-05-16T09:43:29.407Z,3620.00
2019-05-16T09:44:29.397Z,3580.00
2019-05-16T09:45:29.312Z,3352.00
2019-05-16T09:46:29.259Z,3184.00
2019-05-16T09:47:29.351Z,3172.00
2019-05-16T09:48:29.182Z,3116.00
2019-05-16T09:49:29.383Z,3128.00
2019-05-16T09:50:29.068Z,3184.00
2019-05-16T09:51:29.029Z,3268.00
2019-05-16T09:52:29.109Z,3240.00
2019-05-16T09:53:28.962Z,3108.00
2019-05-16T09:54:28.871Z,2932.00
2019-05-16T09:55:28.854Z,2860.00
2019-05-16T09:56:28.786Z,2804.00
2019-05-16T09:57:28.761Z,2764.00
2019-05-16T09:58:28.717Z,2684.00
2019-05-16T09:59:28.625Z,2576.00
2019-05-16T10:00:28.650Z,2456.00
2019-05-16T10:01:28.533Z,2396.00
2019-05-16T10:02:28.512Z,2380.00
2019-05-16T10:03:28.460Z,2348.00
2019-05-16T10:04:28.379Z,2276.00
2019-05-16T10:05:28.346Z,2176.00
2019-05-16T10:06:28.327Z,2084.00
2019-05-16T10:07:28.670Z,2096.00
2019-05-16T10:08:28.186Z,2144.00
2019-05-16T10:09:41.232Z,2220.00
2019-05-16T10:10:28.085Z,2224.00
2019-05-16T10:11:31.284Z,2228.00
2019-05-16T10:12:27.985Z,2228.00
2019-05-16T10:13:28.107Z,2208.00
2019-05-16T10:14:27.883Z,2184.00
2019-05-16T10:15:27.837Z,2184.00
2019-05-16T10:16:27.784Z,2196.00
2019-05-16T10:17:27.776Z,2168.00
2019-05-16T10:18:28.075Z,2116.00
2019-05-16T10:19:27.733Z,2084.00
2019-05-16T10:20:27.589Z,2068.00
2019-05-16T10:21:27.541Z,2032.00
2019-05-16T10:22:27.498Z,2032.00
2019-05-16T10:23:28.464Z,2044.00
2019-05-16T10:24:27.389Z,2040.00
2019-05-16T10:25:27.888Z,2024.00
2019-05-16T10:26:27.921Z,2016.00
2019-05-16T10:27:27.313Z,1992.00
2019-05-16T10:28:27.805Z,1980.00
2019-05-16T10:29:27.544Z,1936.00
2019-05-16T10:30:27.132Z,1876.00
2019-05-16T10:31:41.533Z,1840.00
2019-05-16T10:32:27.461Z,1812.00
2019-05-16T10:33:27.623Z,1816.00
2019-05-16T10:34:26.891Z,1844.00
2019-05-16T10:35:29.874Z,1872.00
2019-05-16T10:36:28.199Z,1888.00
2019-05-16T10:37:27.044Z,1904.00
2019-05-16T10:38:28.516Z,1932.00
2019-05-16T10:39:26.929Z,1988.00
2019-05-16T10:40:27.403Z,2024.00
2019-05-16T10:41:26.562Z,2036.00
2019-05-16T10:42:29.004Z,2080.00
2019-05-16T10:43:26.681Z,2132.00
2019-05-16T10:44:28.249Z,2184.00
2019-05-16T10:45:27.315Z,2216.00
2019-05-16T10:46:26.949Z,2196.00
2019-05-16T10:47:30.717Z,2132.00
2019-05-16T10:48:26.975Z,2040.00
2019-05-16T10:49:37.063Z,1956.00
2019-05-16T10:50:27.623Z,1868.00
2019-05-16T10:51:26.954Z,1844.00
2019-05-16T10:52:26.891Z,1820.00
2019-05-16T10:53:52.257Z,1824.00
2019-05-16T10:54:27.588Z,1792.00
2019-05-16T10:55:27.825Z,1716.00
2019-05-16T10:56:25.788Z,1664.00
2019-05-16T10:57:29.397Z,1676.00
2019-05-16T10:58:36.494Z,1744.00
2019-05-16T10:59:56.722Z,1864.00
2019-05-16T11:00:51.479Z,2020.00
2019-05-16T11:01:28.757Z,2156.00
2019-05-16T11:02:27.544Z,2300.00
2019-05-16T11:03:27.662Z,2324.00
2019-05-16T11:04:33.407Z,2052.00
2019-05-16T11:05:33.052Z,1912.00
2019-05-16T11:06:28.982Z,1840.00
2019-05-16T11:07:29.418Z,1792.00
2019-05-16T11:08:25.196Z,1800.00
2019-05-16T11:09:25.151Z,1784.00
2019-05-16T11:10:26.893Z,1764.00
2019-05-16T11:11:27.393Z,1780.00
2019-05-16T11:12:45.494Z,1784.00
2019-05-16T11:13:27.715Z,1744.00
2019-05-16T11:14:27.983Z,1700.00
2019-05-16T11:15:27.606Z,1620.00
2019-05-16T11:16:27.230Z,1504.00
2019-05-16T11:17:27.564Z,1408.00
2019-05-16T11:18:26.933Z,1340.00
2019-05-16T11:19:24.999Z,1296.00
2019-05-16T11:20:26.748Z,1248.00
2019-05-16T11:21:26.810Z,1200.00
2019-05-16T11:22:29.479Z,1160.00
2019-05-16T11:23:27.545Z,1140.00
2019-05-16T11:24:24.395Z,1144.00
2019-05-16T11:25:31.655Z,1168.00
2019-05-16T11:26:24.271Z,1196.00
2019-05-16T11:27:24.219Z,1208.00
2019-05-16T11:28:24.207Z,1208.00
2019-05-16T11:29:24.120Z,1200.00
2019-05-16T11:30:24.123Z,1212.00
2019-05-16T11:31:26.509Z,1232.00
2019-05-16T11:32:23.968Z,1256.00
2019-05-16T11:33:23.953Z,1288.00
2019-05-16T11:34:23.891Z,1324.00
2019-05-16T11:35:23.821Z,1372.00
2019-05-16T11:36:23.808Z,1392.00
2019-05-16T11:37:23.719Z,1380.00
2019-05-16T11:38:23.667Z,1340.00
2019-05-16T11:39:23.610Z,1348.00
2019-05-16T11:40:23.590Z,1400.00
2019-05-16T11:41:23.542Z,1480.00
2019-05-16T11:42:23.456Z,1576.00
2019-05-16T11:43:23.409Z,1656.00
2019-05-16T11:44:24.495Z,1680.00
2019-05-16T11:45:23.306Z,1680.00
2019-05-16T11:46:23.285Z,1664.00
2019-05-16T11:47:23.249Z,1640.00
2019-05-16T11:48:25.387Z,1636.00
2019-05-16T11:49:23.098Z,1656.00
2019-05-16T11:50:23.060Z,1668.00
2019-05-16T11:51:23.003Z,1660.00
2019-05-16T11:52:22.977Z,1592.00
2019-05-16T11:53:22.902Z,1472.00
2019-05-16T11:54:22.889Z,1384.00
2019-05-16T11:55:22.834Z,1352.00
2019-05-16T11:56:22.785Z,1368.00
2019-05-16T11:57:23.209Z,1420.00
2019-05-16T11:58:22.643Z,1496.00
2019-05-16T11:59:22.593Z,1572.00
2019-05-16T12:00:22.578Z,1692.00
2019-05-16T12:01:22.487Z,1836.00
2019-05-16T12:02:22.446Z,1892.00
2019-05-16T12:03:22.386Z,1828.00
2019-05-16T12:04:22.334Z,1796.00
2019-05-16T12:05:22.325Z,1764.00
2019-05-16T12:06:22.233Z,1740.00
2019-05-16T12:07:22.209Z,1680.00
2019-05-16T12:08:22.137Z,1640.00
2019-05-16T12:09:22.079Z,1608.00
2019-05-16T12:10:22.059Z,1600.00
2019-05-16T12:11:22.004Z,1592.00
2019-05-16T12:12:21.923Z,1532.00
2019-05-16T12:13:27.654Z,1440.00
2019-05-16T12:14:21.852Z,1336.00
2019-05-16T12:15:21.773Z,1248.00
2019-05-16T12:16:21.717Z,1168.00
2019-05-16T12:17:21.667Z,1128.00
2019-05-16T12:18:21.645Z,1132.00
2019-05-16T12:19:21.575Z,1160.00
2019-05-16T12:20:21.515Z,1172.00
2019-05-16T12:21:21.461Z,1188.00
2019-05-16T12:22:21.448Z,1220.00
2019-05-16T12:23:22.807Z,1280.00
2019-05-16T12:24:33.102Z,1332.00
2019-05-16T12:25:21.254Z,1368.00
2019-05-16T12:26:21.207Z,1476.00
2019-05-16T12:27:21.196Z,1620.00
2019-05-16T12:28:21.111Z,1724.00